Time;durP1;ratioP1;P1;durP2;ratioP2;P2;SDS_P1;SDS_P2;PMS_P1;PMS_P2;Temp;Humidity;BMP_temperature;BMP_pressure;BME280_temperature;BME280_humidity;BME280_pressure;Samples;Min_cycle;Max_cycle;Signal;HPM_P1;HPM_P2
2022/05/12 00:00:16;;;;;;;5.40;0.55;;;11.70;99.90;;;;;;4983195;28;20031;-43
2022/05/12 00:02:42;;;;;;;3.13;0.43;;;11.70;99.90;;;;;;4986829;28;20034;-43
2022/05/12 00:05:08;;;;;;;2.83;0.40;;;11.70;99.90;;;;;;4986616;28;20100;-49
2022/05/12 00:07:34;;;;;;;4.50;0.40;;;11.70;99.90;;;;;;4982268;28;20056;-40
2022/05/12 00:10:00;;;;;;;2.55;0.30;;;11.70;99.90;;;;;;4988385;28;20463;-44
2022/05/12 00:12:26;;;;;;;1.80;0.35;;;11.70;99.90;;;;;;4983763;28;20038;-46
2022/05/12 00:14:52;;;;;;;2.92;0.50;;;11.60;99.90;;;;;;4983697;28;20113;-43
2022/05/12 00:17:18;;;;;;;1.95;0.35;;;11.60;99.90;;;;;;4986078;28;20042;-44
2022/05/12 00:19:43;;;;;;;1.42;0.28;;;11.60;99.90;;;;;;4966938;28;20229;-42
2022/05/12 00:22:09;;;;;;;1.35;0.40;;;11.60;99.90;;;;;;4983007;28;20411;-45
2022/05/12 00:24:35;;;;;;;1.20;0.38;;;11.60;99.90;;;;;;4986687;28;20061;-42
2022/05/12 00:27:01;;;;;;;1.88;0.40;;;11.60;99.90;;;;;;4983998;28;20550;-44
2022/05/12 00:29:26;;;;;;;2.90;0.40;;;11.60;99.90;;;;;;4981074;28;20391;-44
2022/05/12 00:31:52;;;;;;;2.65;0.30;;;11.60;99.90;;;;;;4979487;28;20369;-43
2022/05/12 00:34:19;;;;;;;2.05;0.30;;;11.50;99.90;;;;;;4985894;28;20136;-40
2022/05/12 00:36:46;;;;;;;1.42;0.35;;;11.50;99.90;;;;;;4986590;28;20079;-43
2022/05/12 00:39:12;;;;;;;3.08;0.30;;;11.50;99.90;;;;;;4984419;28;20134;-43
2022/05/12 00:41:38;;;;;;;1.52;0.30;;;11.50;99.90;;;;;;4987321;28;20045;-42
2022/05/12 00:44:07;;;;;;;1.90;0.40;;;11.50;99.90;;;;;;4985793;28;20042;-42
2022/05/12 00:46:36;;;;;;;0.75;0.22;;;11.50;99.90;;;;;;4982866;28;20052;-41
2022/05/12 00:49:40;;;;;;;2.38;0.40;;;11.40;99.90;;;;;;4982321;28;20086;-43
2022/05/12 00:52:13;;;;;;;2.25;0.60;;;11.40;99.90;;;;;;4925077;29;20054;-43
2022/05/12 00:54:48;;;;;;;1.23;0.30;;;11.40;99.90;;;;;;4972386;28;20499;-42
2022/05/12 00:57:20;;;;;;;1.90;0.38;;;11.40;99.90;;;;;;4983813;28;20423;-41
2022/05/12 00:59:46;;;;;;;;;;;11.40;99.90;;;;;;4981231;28;20039;-41
2022/05/12 01:02:17;;;;;;;1.95;0.20;;;11.40;99.90;;;;;;4985016;28;20085;-41
2022/05/12 01:04:45;;;;;;;4.30;0.30;;;11.40;99.90;;;;;;4981458;28;20042;-41
2022/05/12 01:07:11;;;;;;;3.85;0.50;;;11.30;99.90;;;;;;4981485;28;20039;-41
2022/05/12 01:09:37;;;;;;;3.17;0.60;;;11.30;99.90;;;;;;4986488;28;20129;-44
2022/05/12 01:12:03;;;;;;;3.60;0.35;;;11.30;99.90;;;;;;4986744;28;20038;-42
2022/05/12 01:14:29;;;;;;;4.22;1.10;;;11.30;99.90;;;;;;4983759;28;20045;-41
2022/05/12 01:16:57;;;;;;;6.18;0.70;;;11.30;99.90;;;;;;4983167;28;20038;-41
2022/05/12 01:19:30;;;;;;;3.40;0.30;;;11.30;99.90;;;;;;4985425;28;20038;-42
2022/05/12 01:21:56;;;;;;;3.40;0.45;;;11.30;99.90;;;;;;4980947;28;20034;-47
2022/05/12 01:24:42;;;;;;;3.30;0.40;;;11.20;99.90;;;;;;4985050;28;20049;-41
2022/05/12 01:27:22;;;;;;;5.18;0.50;;;11.20;99.90;;;;;;4986839;28;20042;-46
2022/05/12 01:30:06;;;;;;;1.65;0.30;;;11.10;99.90;;;;;;4967142;28;20570;-41
2022/05/12 01:32:32;;;;;;;3.88;0.50;;;11.00;99.90;;;;;;4986529;28;20046;-42
2022/05/12 01:34:57;;;;;;;4.80;0.50;;;11.00;99.90;;;;;;4986978;28;20432;-42
2022/05/12 01:37:24;;;;;;;3.58;0.50;;;10.90;99.90;;;;;;4987945;28;20042;-43
2022/05/12 01:39:50;;;;;;;2.45;0.30;;;10.80;99.90;;;;;;4990052;28;20046;-45
2022/05/12 01:42:16;;;;;;;3.85;0.70;;;10.80;99.90;;;;;;4986942;28;20070;-40
2022/05/12 01:44:42;;;;;;;6.72;0.70;;;10.80;99.90;;;;;;4984267;28;20124;-43
2022/05/12 01:47:09;;;;;;;5.50;0.60;;;10.70;99.90;;;;;;4983683;28;20038;-42
2022/05/12 01:49:34;;;;;;;8.80;0.60;;;10.80;99.90;;;;;;4989669;28;20404;-40
2022/05/12 01:52:02;;;;;;;5.53;0.68;;;10.70;99.90;;;;;;4971059;28;20042;-43
2022/05/12 01:54:29;;;;;;;3.10;0.30;;;10.70;99.90;;;;;;4984628;28;20046;-43
2022/05/12 01:56:55;;;;;;;2.92;0.57;;;10.70;99.90;;;;;;4986514;28;20055;-43
2022/05/12 01:59:23;;;;;;;4.47;0.60;;;10.60;99.90;;;;;;4987652;28;20046;-43
2022/05/12 02:01:49;;;;;;;5.38;0.65;;;10.70;99.90;;;;;;4986302;28;20070;-41
2022/05/12 02:04:15;;;;;;;4.00;0.50;;;10.60;99.90;;;;;;4965991;28;20129;-41
2022/05/12 02:06:42;;;;;;;6.35;0.63;;;10.60;99.90;;;;;;4979280;28;20042;-41
2022/05/12 02:09:08;;;;;;;5.15;0.80;;;10.60;99.90;;;;;;4986868;28;20149;-43
2022/05/12 02:11:34;;;;;;;5.97;0.60;;;10.60;99.90;;;;;;4989945;28;20070;-42
2022/05/12 02:14:00;;;;;;;4.82;1.10;;;10.60;99.90;;;;;;4977569;28;20452;-42
2022/05/12 02:16:26;;;;;;;3.80;0.68;;;10.50;99.90;;;;;;4982314;28;20034;-41
2022/05/12 02:18:53;;;;;;;6.90;0.85;;;10.50;99.90;;;;;;4990718;28;20188;-43
2022/05/12 02:21:19;;;;;;;5.28;0.57;;;10.50;99.90;;;;;;4986934;28;20143;-42
2022/05/12 02:23:45;;;;;;;5.80;0.63;;;10.50;99.90;;;;;;4987204;28;20045;-43
2022/05/12 02:26:11;;;;;;;4.53;0.60;;;10.50;99.90;;;;;;4985276;28;20054;-43
2022/05/12 02:28:36;;;;;;;7.32;0.90;;;10.50;99.90;;;;;;4988222;28;20517;-43
2022/05/12 02:31:02;;;;;;;7.90;1.05;;;10.50;99.90;;;;;;4984838;28;20119;-45
2022/05/12 02:33:28;;;;;;;5.50;1.23;;;10.50;99.90;;;;;;4986848;28;20045;-42
2022/05/12 02:35:54;;;;;;;9.38;1.08;;;10.50;99.90;;;;;;4987183;28;20674;-41
2022/05/12 02:38:19;;;;;;;5.22;0.88;;;10.50;99.90;;;;;;4986461;28;20065;-41
2022/05/12 02:40:45;;;;;;;7.10;1.30;;;10.40;99.90;;;;;;4983376;28;20368;-45
2022/05/12 02:43:23;;;;;;;6.63;1.13;;;10.40;99.90;;;;;;4985902;28;20034;-42
2022/05/12 02:45:56;;;;;;;5.82;0.70;;;10.40;99.90;;;;;;4984232;28;20042;-42
2022/05/12 02:48:26;;;;;;;5.30;0.82;;;10.30;99.90;;;;;;4987408;28;20037;-41
2022/05/12 02:50:52;;;;;;;5.90;0.80;;;10.30;99.90;;;;;;4986703;28;20084;-42
2022/05/12 02:53:18;;;;;;;5.15;1.15;;;10.20;99.90;;;;;;4983542;28;21624;-50
2022/05/12 02:55:43;;;;;;;7.60;0.90;;;10.20;99.90;;;;;;4987201;28;20578;-52
2022/05/12 02:58:10;;;;;;;5.65;1.20;;;10.10;99.90;;;;;;4986039;28;20092;-41
2022/05/12 03:00:37;;;;;;;6.20;1.20;;;10.10;99.90;;;;;;4985228;28;20121;-43
2022/05/12 03:03:03;;;;;;;5.07;0.85;;;10.00;99.90;;;;;;4968083;28;20443;-42
2022/05/12 03:05:29;;;;;;;4.75;1.20;;;9.90;99.90;;;;;;4989004;28;20407;-43
2022/05/12 03:07:55;;;;;;;6.25;1.20;;;9.80;99.90;;;;;;4984163;28;20544;-46
2022/05/12 03:10:23;;;;;;;2.38;0.65;;;9.80;99.90;;;;;;4982971;28;20037;-44
2022/05/12 03:12:49;;;;;;;7.03;1.20;;;9.80;99.90;;;;;;4981864;28;20065;-46
2022/05/12 03:15:15;;;;;;;5.72;1.30;;;9.80;99.90;;;;;;4967902;28;20100;-49
2022/05/12 03:17:43;;;;;;;9.07;1.27;;;9.80;99.90;;;;;;4985653;28;20030;-44
2022/05/12 03:20:12;;;;;;;3.03;0.90;;;9.80;99.90;;;;;;4985890;28;20464;-43
2022/05/12 03:22:39;;;;;;;5.38;1.45;;;9.70;99.90;;;;;;4985334;28;20046;-44
2022/05/12 03:25:08;;;;;;;7.43;1.40;;;9.70;99.90;;;;;;4984447;28;20077;-43
2022/05/12 03:27:34;;;;;;;4.22;0.85;;;9.70;99.90;;;;;;4983374;28;20110;-42
2022/05/12 03:29:59;;;;;;;4.35;1.00;;;9.70;99.90;;;;;;4982074;28;20078;-42
2022/05/12 03:32:25;;;;;;;3.65;1.08;;;9.60;99.90;;;;;;4984030;28;20193;-46
2022/05/12 03:34:51;;;;;;;6.43;0.95;;;9.60;99.90;;;;;;4986441;28;20070;-42
2022/05/12 03:37:17;;;;;;;2.70;1.08;;;9.60;99.90;;;;;;4987204;28;20592;-41
2022/05/12 03:39:44;;;;;;;8.30;1.50;;;9.50;99.90;;;;;;4986485;28;20096;-45
2022/05/12 03:42:12;;;;;;;3.72;1.10;;;9.50;99.90;;;;;;4981864;28;20084;-45
2022/05/12 03:44:47;;;;;;;7.93;1.45;;;9.50;99.90;;;;;;4986155;28;20125;-49
2022/05/12 03:47:24;;;;;;;4.25;1.20;;;9.40;99.90;;;;;;4981321;28;20042;-49
2022/05/12 03:49:53;;;;;;;3.40;1.17;;;9.40;99.90;;;;;;4982078;28;20054;-52
2022/05/12 03:52:20;;;;;;;4.75;1.48;;;9.30;99.90;;;;;;4987331;28;20424;-50
2022/05/12 03:54:47;;;;;;;8.50;1.52;;;9.30;99.90;;;;;;4983721;28;20399;-52
2022/05/12 03:57:15;;;;;;;9.10;2.40;;;9.30;99.90;;;;;;4985742;28;20054;-49
2022/05/12 03:59:41;;;;;;;5.22;1.65;;;9.40;99.90;;;;;;4986839;28;20069;-53
2022/05/12 04:02:09;;;;;;;4.50;2.05;;;9.40;99.90;;;;;;4984022;28;20030;-48
2022/05/12 04:04:35;;;;;;;6.82;2.30;;;9.40;99.90;;;;;;4984362;28;20430;-51
2022/05/12 04:07:02;;;;;;;7.22;2.50;;;9.40;99.90;;;;;;4987340;28;20041;-47
2022/05/12 04:09:28;;;;;;;7.25;2.38;;;9.40;99.90;;;;;;4984666;28;20531;-49
2022/05/12 04:11:53;;;;;;;6.07;2.35;;;9.50;99.90;;;;;;4984744;28;20077;-48
2022/05/12 04:14:20;;;;;;;11.55;3.22;;;9.50;99.90;;;;;;4985022;28;20121;-53
2022/05/12 04:16:45;;;;;;;6.70;3.30;;;9.50;99.90;;;;;;4983490;28;20610;-52
2022/05/12 04:19:12;;;;;;;11.50;3.47;;;9.50;99.90;;;;;;4986549;28;20109;-51
2022/05/12 04:21:38;;;;;;;8.10;3.20;;;9.50;99.90;;;;;;4985356;28;20038;-46
2022/05/12 04:24:06;;;;;;;8.27;2.72;;;9.50;99.90;;;;;;4981493;28;20038;-49
2022/05/12 04:26:37;;;;;;;8.85;3.38;;;9.50;99.90;;;;;;4986830;28;20069;-50
2022/05/12 04:29:04;;;;;;;8.63;3.33;;;9.50;99.90;;;;;;4986120;28;20038;-52
2022/05/12 04:31:29;;;;;;;10.82;3.22;;;9.50;99.90;;;;;;4982071;28;20072;-47
2022/05/12 04:36:40;;;;;;;8.32;3.35;;;9.50;99.90;;;;;;4971187;28;20173;-52
2022/05/12 04:39:07;;;;;;;7.38;2.75;;;9.50;99.90;;;;;;4982697;28;20067;-53
2022/05/12 04:41:32;;;;;;;7.25;3.00;;;9.50;99.90;;;;;;4982768;28;20038;-51
2022/05/12 04:44:01;;;;;;;7.20;2.80;;;9.50;99.90;;;;;;4981407;28;20046;-52
2022/05/12 04:46:27;;;;;;;6.32;2.22;;;9.50;99.90;;;;;;4979648;28;20046;-53
2022/05/12 04:48:54;;;;;;;7.45;2.95;;;9.50;99.90;;;;;;4985774;28;20034;-51
2022/05/12 04:51:20;;;;;;;6.82;2.30;;;9.50;99.90;;;;;;4967850;28;20066;-50
2022/05/12 04:53:47;;;;;;;9.93;2.38;;;9.60;99.90;;;;;;4967890;28;20046;-52
2022/05/12 04:56:13;;;;;;;5.07;2.17;;;9.60;99.90;;;;;;4983257;28;20042;-49
2022/05/12 04:58:39;;;;;;;6.30;2.33;;;9.60;99.90;;;;;;4986894;28;20089;-50
2022/05/12 05:01:04;;;;;;;8.52;3.05;;;9.70;99.90;;;;;;4984410;28;20551;-51
2022/05/12 05:03:30;;;;;;;12.45;2.88;;;9.70;99.90;;;;;;4991772;28;20439;-52
2022/05/12 05:05:56;;;;;;;8.27;2.70;;;9.80;99.90;;;;;;4990469;28;20088;-49
2022/05/12 05:08:23;;;;;;;9.57;2.85;;;9.90;99.90;;;;;;4988042;28;20522;-49
2022/05/12 05:10:51;;;;;;;9.32;2.65;;;9.90;99.90;;;;;;4986103;28;20046;-49
2022/05/12 05:13:19;;;;;;;9.18;3.20;;;9.90;99.90;;;;;;4989174;28;20054;-50
2022/05/12 05:15:50;;;;;;;10.85;3.58;;;10.10;99.90;;;;;;4993787;28;20177;-52
2022/05/12 05:18:17;;;;;;;9.27;3.58;;;10.10;99.90;;;;;;4992563;28;20568;-52
2022/05/12 05:20:44;;;;;;;10.48;3.40;;;10.20;99.90;;;;;;4988399;28;20130;-49
2022/05/12 05:23:21;;;;;;;15.02;3.97;;;10.30;99.90;;;;;;4973604;28;20093;-52
2022/05/12 05:25:48;;;;;;;11.00;3.45;;;10.40;99.90;;;;;;4985925;28;20042;-52
2022/05/12 05:28:14;;;;;;;9.85;3.42;;;10.50;99.90;;;;;;4988623;28;20207;-53
2022/05/12 05:30:41;;;;;;;11.05;3.90;;;10.60;99.90;;;;;;4988544;28;20506;-46
2022/05/12 05:33:08;;;;;;;13.70;3.80;;;10.60;99.90;;;;;;4993094;28;20035;-52
2022/05/12 05:35:34;;;;;;;9.50;3.97;;;10.80;99.90;;;;;;4990166;28;20982;-52
2022/05/12 05:38:01;;;;;;;10.23;4.32;;;10.90;99.90;;;;;;4988565;28;20061;-49
2022/05/12 05:40:28;;;;;;;9.50;3.72;;;11.00;99.90;;;;;;4989319;28;20038;-50
2022/05/12 05:42:55;;;;;;;11.20;3.47;;;11.10;99.90;;;;;;4989868;28;20034;-51
2022/05/12 05:45:22;;;;;;;10.25;3.60;;;11.20;99.90;;;;;;4985562;28;20046;-48
2022/05/12 05:47:50;;;;;;;11.38;3.78;;;11.40;99.90;;;;;;4987617;28;20046;-53
2022/05/12 05:50:20;;;;;;;8.18;3.13;;;11.50;99.90;;;;;;4990145;28;20042;-49
2022/05/12 05:55:30;;;;;;;10.48;2.72;;;11.70;99.90;;;;;;4992333;28;20113;-51
2022/05/12 05:58:03;;;;;;;9.20;2.60;;;11.80;99.90;;;;;;4991407;28;20396;-49
2022/05/12 06:00:31;;;;;;;8.95;3.03;;;11.90;99.90;;;;;;4986888;28;20042;-45
2022/05/12 06:02:58;;;;;;;7.45;3.08;;;12.00;99.90;;;;;;4980317;28;20039;-47
2022/05/12 06:05:24;;;;;;;7.05;2.70;;;12.10;99.90;;;;;;4991394;28;20049;-48
2022/05/12 06:07:50;;;;;;;11.88;3.03;;;12.20;99.90;;;;;;4986344;28;20050;-49
2022/05/12 06:10:16;;;;;;;7.85;2.67;;;12.30;99.90;;;;;;4988404;28;20122;-50
2022/05/12 06:12:41;;;;;;;9.65;2.80;;;12.30;99.90;;;;;;4989292;28;20096;-52
2022/05/12 06:15:09;;;;;;;6.72;2.25;;;12.40;99.90;;;;;;4988122;28;20069;-46
2022/05/12 06:17:36;;;;;;;7.88;2.83;;;12.50;99.90;;;;;;4984608;28;20097;-51
2022/05/12 06:20:04;;;;;;;7.38;2.63;;;12.60;99.90;;;;;;4986314;28;20467;-51
2022/05/12 06:22:29;;;;;;;6.50;2.17;;;12.60;99.90;;;;;;4969010;28;20042;-51
2022/05/12 06:24:55;;;;;;;8.35;2.10;;;12.70;99.90;;;;;;4988427;28;20707;-52
2022/05/12 06:27:22;;;;;;;10.35;2.58;;;12.80;99.90;;;;;;4968354;28;20113;-52
2022/05/12 06:29:48;;;;;;;7.15;1.70;;;12.90;99.90;;;;;;4969370;28;20042;-48
2022/05/12 06:32:15;;;;;;;7.18;2.65;;;13.00;99.90;;;;;;4969410;28;20042;-52
2022/05/12 06:34:42;;;;;;;7.32;2.20;;;13.10;99.90;;;;;;4990339;28;20476;-52
2022/05/12 06:37:09;;;;;;;8.07;2.30;;;13.10;99.90;;;;;;4987642;28;20038;-53
2022/05/12 06:39:34;;;;;;;6.63;2.17;;;13.10;99.90;;;;;;4987088;28;20050;-52
2022/05/12 06:42:01;;;;;;;7.68;2.10;;;13.20;99.90;;;;;;4981192;28;20046;-53
2022/05/12 06:44:27;;;;;;;9.18;2.35;;;13.30;99.90;;;;;;4983747;28;20054;-47
2022/05/12 06:46:53;;;;;;;10.13;2.30;;;13.30;99.90;;;;;;4982444;28;20511;-53
2022/05/12 06:49:20;;;;;;;7.13;2.33;;;13.40;99.90;;;;;;4985278;28;20638;-52
2022/05/12 06:51:46;;;;;;;7.40;2.13;;;13.50;99.90;;;;;;4982686;28;20034;-48
2022/05/12 06:54:13;;;;;;;5.65;1.65;;;13.50;99.90;;;;;;4984813;28;20035;-54
2022/05/12 06:56:40;;;;;;;10.15;2.38;;;13.60;99.90;;;;;;4982498;28;20511;-50
2022/05/12 06:59:07;;;;;;;6.28;2.15;;;13.60;99.90;;;;;;4976695;28;21258;-53
2022/05/12 07:01:33;;;;;;;7.72;1.90;;;13.70;99.90;;;;;;4981691;28;20034;-46
2022/05/12 07:04:00;;;;;;;6.32;1.98;;;13.70;99.90;;;;;;4983328;28;20549;-46
2022/05/12 07:06:27;;;;;;;5.75;1.40;;;13.80;99.90;;;;;;4980170;28;20069;-47
2022/05/12 07:08:53;;;;;;;5.80;1.92;;;13.90;99.90;;;;;;4983080;28;20037;-53
2022/05/12 07:11:19;;;;;;;8.50;1.63;;;13.90;99.90;;;;;;4983961;28;20084;-53
2022/05/12 07:13:46;;;;;;;9.82;1.52;;;14.00;99.90;;;;;;4985073;28;20511;-48
2022/05/12 07:16:12;;;;;;;4.90;1.33;;;14.10;99.90;;;;;;4985967;28;20176;-52
2022/05/12 07:18:38;;;;;;;5.18;1.20;;;14.00;99.90;;;;;;4981249;28;20565;-54
2022/05/12 07:26:36;;;;;;;4.57;1.25;;;14.00;99.90;;;;;;4985294;28;20518;-52
2022/05/12 07:29:20;;;;;;;5.72;1.20;;;14.10;99.90;;;;;;4964514;28;20134;-49
2022/05/12 07:31:48;;;;;;;4.80;1.27;;;14.20;99.90;;;;;;4988476;28;20463;-53
2022/05/12 07:34:14;;;;;;;5.88;1.20;;;14.30;99.90;;;;;;4985976;28;20050;-54
2022/05/12 07:36:44;;;;;;;8.10;1.75;;;14.40;99.90;;;;;;4983756;28;20527;-53
2022/05/12 07:39:12;;;;;;;8.38;1.52;;;14.50;99.90;;;;;;4983687;28;20409;-52
2022/05/12 07:41:41;;;;;;;7.55;1.73;;;14.50;99.90;;;;;;4985816;28;21358;-51
2022/05/12 07:44:10;;;;;;;5.50;1.25;;;14.50;99.90;;;;;;4987141;28;20495;-53
2022/05/12 07:46:37;;;;;;;5.28;1.50;;;14.50;99.90;;;;;;4989344;28;20057;-52
2022/05/12 07:49:03;;;;;;;8.85;1.90;;;14.60;99.90;;;;;;4988502;28;20497;-54
2022/05/12 07:51:29;;;;;;;6.97;1.70;;;14.60;99.90;;;;;;4988141;28;20144;-50
2022/05/12 07:53:54;;;;;;;6.25;1.90;;;14.70;99.90;;;;;;4989341;28;20044;-49
2022/05/12 07:56:23;;;;;;;6.28;1.77;;;14.60;99.90;;;;;;4984770;28;20076;-52
2022/05/12 07:58:50;;;;;;;6.22;1.73;;;14.60;99.90;;;;;;4971336;28;20057;-54
2022/05/12 08:01:17;;;;;;;9.32;1.60;;;14.60;99.90;;;;;;4982773;28;20040;-52
2022/05/12 08:03:44;;;;;;;9.05;1.42;;;14.50;99.90;;;;;;4987497;28;20034;-54
2022/05/12 08:06:10;;;;;;;6.15;1.40;;;14.40;99.90;;;;;;4986873;28;20042;-52
2022/05/12 08:08:36;;;;;;;5.88;1.58;;;14.40;99.90;;;;;;4985767;28;20510;-54
2022/05/12 08:11:03;;;;;;;7.13;1.45;;;14.40;99.90;;;;;;4986828;28;20030;-53
2022/05/12 08:13:29;;;;;;;6.63;1.52;;;14.40;99.90;;;;;;4989188;28;20411;-54
2022/05/12 08:15:55;;;;;;;5.78;1.60;;;14.50;99.90;;;;;;4983701;28;20042;-50
2022/05/12 08:18:23;;;;;;;4.35;1.40;;;14.60;99.90;;;;;;4986917;28;20507;-54
2022/05/12 08:20:50;;;;;;;2.67;0.90;;;14.80;99.90;;;;;;4988578;28;20073;-53
2022/05/12 08:23:15;;;;;;;4.03;1.17;;;14.90;99.90;;;;;;4984177;28;20066;-50
2022/05/12 08:25:42;;;;;;;3.38;1.38;;;15.00;99.90;;;;;;4988598;28;20104;-51
2022/05/12 08:28:09;;;;;;;4.45;1.65;;;15.20;99.90;;;;;;4987684;28;20172;-50
2022/05/12 08:30:35;;;;;;;2.97;1.10;;;15.30;99.90;;;;;;4986276;28;20164;-50
2022/05/12 08:33:01;;;;;;;3.40;1.27;;;15.40;99.90;;;;;;4986496;28;20097;-52
2022/05/12 08:35:27;;;;;;;8.32;1.42;;;15.50;99.90;;;;;;4984923;28;20519;-53
2022/05/12 08:37:53;;;;;;;6.00;1.30;;;15.50;98.10;;;;;;4987038;28;20495;-52
2022/05/12 08:40:31;;;;;;;3.85;1.20;;;15.50;97.80;;;;;;4988641;28;20429;-54
2022/05/12 08:43:05;;;;;;;3.85;1.20;;;15.50;98.10;;;;;;4986997;28;20070;-52
2022/05/12 08:45:31;;;;;;;5.10;1.13;;;15.50;97.90;;;;;;4987294;28;20130;-49
2022/05/12 08:47:58;;;;;;;5.28;1.25;;;15.60;98.00;;;;;;4985963;28;20450;-47
2022/05/12 08:50:30;;;;;;;5.95;1.40;;;15.70;96.20;;;;;;4988140;28;20095;-54
2022/05/12 08:53:02;;;;;;;6.57;1.27;;;15.80;96.10;;;;;;4987498;28;20042;-56
2022/05/12 08:55:35;;;;;;;5.57;1.20;;;15.80;95.10;;;;;;4985343;28;20107;-54
2022/05/12 08:58:08;;;;;;;5.93;1.20;;;15.80;94.60;;;;;;4980281;28;20088;-51
2022/05/12 09:00:40;;;;;;;5.32;1.42;;;15.90;94.20;;;;;;4981734;28;20172;-55
2022/05/12 09:03:23;;;;;;;5.43;1.10;;;15.80;92.40;;;;;;4984278;28;20045;-51
2022/05/12 09:06:03;;;;;;;;;;;15.90;90.90;;;;;;4981425;28;20041;-54
2022/05/12 09:08:57;;;;;;;3.75;0.98;;;15.80;91.40;;;;;;4982896;28;20359;-55
2022/05/12 09:11:32;;;;;;;6.72;1.15;;;15.80;91.10;;;;;;4985433;28;20042;-55
2022/05/12 09:14:00;;;;;;;2.90;0.80;;;15.90;90.20;;;;;;4982229;28;20038;-53
2022/05/12 09:16:29;;;;;;;4.00;0.80;;;15.90;89.90;;;;;;4984727;28;20506;-51
2022/05/12 09:18:55;;;;;;;7.32;1.23;;;15.90;87.30;;;;;;4981020;28;20026;-53
2022/05/12 09:21:35;;;;;;;5.00;1.15;;;16.00;88.90;;;;;;4984162;28;20045;-53
2022/05/12 09:24:03;;;;;;;3.80;0.68;;;16.20;89.20;;;;;;4979088;28;20069;-51
2022/05/12 09:26:39;;;;;;;5.75;0.75;;;16.30;85.60;;;;;;4982358;28;20173;-55
2022/05/12 09:29:16;;;;;;;3.35;0.70;;;16.30;77.20;;;;;;4980540;28;20031;-56
2022/05/12 09:31:45;;;;;;;3.22;0.70;;;16.40;82.00;;;;;;4979360;28;20061;-53
2022/05/12 09:34:36;;;;;;;3.20;0.65;;;16.50;78.80;;;;;;4983327;28;20077;-51
2022/05/12 09:37:20;;;;;;;4.10;0.95;;;16.40;76.10;;;;;;4983020;28;20121;-54
2022/05/12 09:39:57;;;;;;;5.35;0.88;;;16.50;79.80;;;;;;4985357;28;20031;-48
2022/05/12 09:42:28;;;;;;;3.58;0.90;;;16.60;76.50;;;;;;4980056;28;20518;-51
2022/05/12 09:45:07;;;;;;;6.97;1.20;;;16.60;78.50;;;;;;4979720;28;20073;-55
2022/05/12 09:47:34;;;;;;;5.25;1.00;;;16.60;76.50;;;;;;4978767;28;20457;-55
2022/05/12 09:50:17;;;;;;;4.18;0.85;;;16.70;79.60;;;;;;4987481;28;20046;-54
2022/05/12 09:52:47;;;;;;;6.57;1.15;;;16.80;80.20;;;;;;4984450;28;20043;-54
2022/05/12 09:55:13;;;;;;;4.70;1.13;;;16.80;78.00;;;;;;4989374;28;20053;-53
2022/05/12 09:58:05;;;;;;;3.53;0.75;;;16.70;73.00;;;;;;4984183;28;20423;-55
2022/05/12 10:00:31;;;;;;;4.18;0.90;;;16.70;72.00;;;;;;4962482;28;20054;-56
2022/05/12 10:08:43;;;;;;;4.68;0.85;;;17.00;70.80;;;;;;4989032;28;20096;-56
2022/05/12 10:11:12;;;;;;;2.80;0.60;;;17.00;71.40;;;;;;4985792;28;20038;-56
2022/05/12 10:13:59;;;;;;;2.90;0.90;;;17.00;72.20;;;;;;4985590;28;20046;-54
2022/05/12 10:16:30;;;;;;;3.45;0.80;;;17.10;67.50;;;;;;4987131;28;20073;-55
2022/05/12 10:19:01;;;;;;;5.60;1.15;;;17.20;71.50;;;;;;4986205;28;20042;-56
2022/05/12 10:21:30;;;;;;;4.53;1.13;;;17.20;71.40;;;;;;4986233;28;20053;-53
2022/05/12 10:24:07;;;;;;;3.80;0.82;;;17.30;69.20;;;;;;4970558;28;20030;-51
2022/05/12 10:26:50;;;;;;;4.35;0.80;;;17.20;67.80;;;;;;4987839;28;20045;-56
2022/05/12 10:29:44;;;;;;;4.22;0.90;;;17.40;71.20;;;;;;4984016;28;20142;-53
2022/05/12 10:32:42;;;;;;;2.35;0.80;;;17.50;66.40;;;;;;4985371;28;20476;-55
2022/05/12 10:35:50;;;;;;;4.50;0.88;;;17.50;62.70;;;;;;4954279;28;20068;-52
2022/05/12 10:38:51;;;;;;;4.13;1.17;;;17.60;65.70;;;;;;4979830;28;20053;-55
2022/05/12 10:41:29;;;;;;;4.63;1.00;;;17.60;64.90;;;;;;4986028;28;20129;-55
2022/05/12 10:44:24;;;;;;;4.32;1.52;;;17.60;63.40;;;;;;4988041;28;20125;-55
2022/05/12 10:47:04;;;;;;;6.00;0.98;;;17.70;64.30;;;;;;4978539;28;20484;-55
2022/05/12 10:49:48;;;;;;;5.80;1.33;;;17.90;58.70;;;;;;4988536;28;20125;-56
2022/05/12 10:53:02;;;;;;;2.30;0.60;;;17.90;61.00;;;;;;4985031;28;20181;-57
2022/05/12 10:55:44;;;;;;;2.70;1.25;;;17.80;56.70;;;;;;4970841;28;20074;-56
2022/05/12 10:58:20;;;;;;;6.70;1.10;;;17.70;58.50;;;;;;4982221;28;20049;-53
2022/05/12 11:01:23;;;;;;;6.28;1.02;;;17.80;60.30;;;;;;4986879;28;20089;-55
2022/05/12 11:03:54;;;;;;;;;;;17.90;58.30;;;;;;4982214;28;20113;-54
2022/05/12 11:06:35;;;;;;;2.35;0.77;;;18.00;57.60;;;;;;4981547;28;20030;-55
2022/05/12 11:09:13;;;;;;;2.70;0.70;;;17.90;56.80;;;;;;4986384;28;20046;-51
2022/05/12 11:11:50;;;;;;;3.97;0.60;;;18.10;58.40;;;;;;4983450;28;20045;-56
2022/05/12 11:14:31;;;;;;;6.15;0.80;;;18.20;58.00;;;;;;4964464;28;20153;-55
2022/05/12 11:17:08;;;;;;;4.40;0.80;;;18.40;57.30;;;;;;4962400;28;20108;-53
2022/05/12 11:19:36;;;;;;;3.70;0.70;;;18.40;57.20;;;;;;4987765;28;20141;-57
2022/05/12 11:22:14;;;;;;;5.00;0.93;;;18.50;58.50;;;;;;4966393;28;20057;-53
2022/05/12 11:24:58;;;;;;;4.50;0.90;;;18.50;54.80;;;;;;4986184;28;20494;-56
2022/05/12 11:27:31;;;;;;;2.13;0.63;;;18.40;56.10;;;;;;4982529;28;20066;-49
2022/05/12 11:30:00;;;;;;;2.65;0.90;;;18.30;56.10;;;;;;4978485;28;20057;-55
2022/05/12 11:32:38;;;;;;;5.55;0.60;;;18.30;56.20;;;;;;4983476;28;20133;-54
2022/05/12 11:35:09;;;;;;;2.20;0.75;;;18.40;54.00;;;;;;4967642;28;20040;-56
2022/05/12 11:37:52;;;;;;;2.88;0.68;;;18.50;54.20;;;;;;4986028;28;20047;-52
2022/05/12 11:40:49;;;;;;;2.53;0.77;;;18.50;52.70;;;;;;4987816;28;20041;-56
2022/05/12 11:46:23;;;;;;;3.58;0.60;;;18.50;52.10;;;;;;4981705;28;20475;-55
2022/05/12 11:48:59;;;;;;;3.25;0.70;;;18.60;52.40;;;;;;4982560;28;20810;-56
2022/05/12 11:51:53;;;;;;;5.13;0.75;;;18.80;52.70;;;;;;4985503;28;20065;-56
2022/05/12 11:54:46;;;;;;;4.63;0.68;;;18.80;51.90;;;;;;4982088;28;20039;-56
2022/05/12 11:57:29;;;;;;;3.63;0.60;;;18.80;50.80;;;;;;4971051;28;20050;-54
2022/05/12 11:59:56;;;;;;;;;;;18.60;50.50;;;;;;4983967;28;20125;-49
2022/05/12 12:02:44;;;;;;;3.92;0.65;;;18.80;51.60;;;;;;4983686;28;19926;-55
2022/05/12 12:05:31;;;;;;;3.53;0.50;;;18.90;49.40;;;;;;4981800;28;20038;-52
2022/05/12 12:07:58;;;;;;;4.10;0.80;;;19.10;50.50;;;;;;4982966;28;21012;-55
2022/05/12 12:10:24;;;;;;;3.60;0.60;;;19.20;50.50;;;;;;4981555;28;20113;-55
2022/05/12 12:13:16;;;;;;;3.75;0.55;;;19.30;49.70;;;;;;4986213;28;20058;-56
2022/05/12 12:16:01;;;;;;;4.57;0.60;;;19.30;49.10;;;;;;4969243;28;20512;-54
2022/05/12 12:18:30;;;;;;;2.75;0.60;;;19.30;48.70;;;;;;4981322;28;20065;-54
2022/05/12 12:20:59;;;;;;;3.80;0.60;;;19.20;46.60;;;;;;4982168;28;20050;-49
2022/05/12 12:23:25;;;;;;;5.40;0.60;;;19.10;47.70;;;;;;4982476;28;20042;-54
2022/05/12 12:26:01;;;;;;;3.25;0.68;;;19.20;48.60;;;;;;4984890;28;20061;-54
2022/05/12 12:28:55;;;;;;;2.75;0.70;;;19.20;47.70;;;;;;4977807;28;20564;-54
2022/05/12 12:31:28;;;;;;;3.13;0.82;;;19.20;48.60;;;;;;4978890;28;20444;-56
2022/05/12 12:34:03;;;;;;;4.43;0.88;;;19.40;48.60;;;;;;4984013;28;20042;-48
2022/05/12 12:36:28;;;;;;;2.38;0.50;;;19.70;48.90;;;;;;4986973;28;20660;-56
2022/05/12 12:38:54;;;;;;;4.70;0.60;;;19.90;48.00;;;;;;4966024;28;20030;-52
2022/05/12 12:41:30;;;;;;;2.00;0.50;;;19.80;46.30;;;;;;4967035;28;20458;-56
2022/05/12 12:44:09;;;;;;;2.72;0.70;;;19.70;46.30;;;;;;4966327;28;20085;-55
2022/05/12 12:47:08;;;;;;;2.05;0.40;;;19.80;46.20;;;;;;4987252;28;20045;-58
2022/05/12 12:50:19;;;;;;;1.95;0.73;;;19.80;42.80;;;;;;4969785;28;20500;-59
2022/05/12 12:52:46;;;;;;;2.65;0.52;;;19.70;44.00;;;;;;4935614;28;20063;-54
2022/05/12 12:58:37;;;;;;;2.95;0.90;;;19.80;45.40;;;;;;4979291;28;20053;-58
2022/05/12 13:01:16;;;;;;;2.47;0.60;;;19.90;45.40;;;;;;4989528;28;20142;-54
2022/05/12 13:03:57;;;;;;;2.45;0.77;;;20.00;45.60;;;;;;4964878;28;20046;-54
2022/05/12 13:06:30;;;;;;;4.00;0.60;;;19.90;43.70;;;;;;4980391;28;20085;-55
2022/05/12 13:08:59;;;;;;;5.05;1.05;;;19.80;44.60;;;;;;4979753;28;20042;-52
2022/05/12 13:11:24;;;;;;;4.65;0.65;;;19.70;44.40;;;;;;4984297;28;20044;-49
2022/05/12 13:13:52;;;;;;;3.45;0.80;;;19.70;45.20;;;;;;4985620;28;20046;-61
2022/05/12 13:16:21;;;;;;;3.42;0.70;;;19.80;44.50;;;;;;4981575;28;20042;-56
2022/05/12 13:18:51;;;;;;;7.30;1.40;;;19.90;44.70;;;;;;4982747;28;20040;-58
2022/05/12 13:21:24;;;;;;;2.22;0.80;;;20.20;45.50;;;;;;4985236;28;20488;-56
2022/05/12 13:24:28;;;;;;;3.10;0.50;;;20.30;45.30;;;;;;4987061;28;20073;-56
2022/05/12 13:26:59;;;;;;;9.95;1.10;;;20.20;45.10;;;;;;4969968;28;20441;-57
2022/05/12 13:29:31;;;;;;;3.40;0.73;;;20.30;45.70;;;;;;4985959;28;20030;-57